Decoded Metar for KDDC (DODGE CITY in KS, USA) (IATA:DDC) | Meteo·Mobile Aviation Weather
aviador You're here:

KDDC Decoded Metar

DODGE CITY in KS, USA
Report Time2018-09-22 18:52:00
UTC Time2018-09-22 19:11:37
Flight Rules vfr VFR
Wind100° at 05 kt
W.Decomp.*RWY 14: 3.3 kt HW 3.7 kt LCW
RWY 02: 1.5 kt HW 4.8 kt RCW
W.Rank100° ranks 28
Current wind is below 100° avg. (7.3)
Visibility9999 m
Phenomena:N/A
Clouds:N/A
Expected CloudBase > 5,600 ft AGL from Temp-Dew spread
CeilingNone
Temp22°C (ISA +12)
Dew Point08°C (41% RH)
AAT19.8°C
QNH1023 hPa
Density Alt3,812 ft
Elevation2,589 ft
Report Wrong Elevation
Raw Report
KDDC 221852Z AUTO 10005KT 8SM CLR 22/08 A3020 RMK AO2 SLP210
T02170078=

Extra information for KDDC:More info

Metar Taf Metar & Taf Last 4 Metars F.Rules Stats Wind Profile Meteogram Temp Stats Airport Information Weather charts Add Link Nearby VenuesMetar ALERT Operation Metar Decoded Social comments

AIRNAV info for KDDC